createdAt,value
2023-05-15T00:00:10.875Z,101359.53
2023-05-15T00:03:32.880Z,101354.41
2023-05-15T00:06:54.691Z,101352.78
2023-05-15T00:10:17.884Z,101351.97
2023-05-15T00:13:39.795Z,101355.66
2023-05-15T00:17:01.616Z,101347.97
2023-05-15T00:20:23.444Z,101348.19
2023-05-15T00:23:45.047Z,101345.72
2023-05-15T00:27:08.477Z,101347.72
2023-05-15T00:30:30.500Z,101342.78
2023-05-15T00:33:52.152Z,101338.50
2023-05-15T00:37:13.778Z,101339.66
2023-05-15T00:40:37.398Z,101342.50
2023-05-15T00:44:02.003Z,101334.00
2023-05-15T00:47:25.262Z,101337.63
2023-05-15T00:50:46.936Z,101337.06
2023-05-15T00:54:09.162Z,101335.47
2023-05-15T00:57:32.740Z,101334.75
2023-05-15T01:00:56.354Z,101325.38
2023-05-15T01:04:18.414Z,101334.28
2023-05-15T01:07:49.553Z,101324.81
2023-05-15T01:11:13.027Z,101328.53
2023-05-15T01:14:34.678Z,101319.13
2023-05-15T01:17:58.010Z,101317.47
2023-05-15T01:21:42.095Z,101323.69
2023-05-15T01:25:37.272Z,101318.56
2023-05-15T01:29:06.205Z,101310.09
2023-05-15T01:32:34.539Z,101310.06
2023-05-15T01:36:00.997Z,101303.22
2023-05-15T01:39:29.113Z,101301.44
2023-05-15T01:42:55.285Z,101294.59
2023-05-15T01:46:21.218Z,101298.94
2023-05-15T01:49:46.168Z,101292.94
2023-05-15T01:53:10.641Z,101287.72
2023-05-15T01:56:33.357Z,101281.69
2023-05-15T01:59:56.565Z,101284.28
2023-05-15T02:03:20.336Z,101292.13
2023-05-15T02:06:42.491Z,101289.50
2023-05-15T02:10:05.362Z,101286.72
2023-05-15T02:13:28.130Z,101284.81
2023-05-15T02:16:50.088Z,101278.53
2023-05-15T02:20:14.461Z,101282.81
2023-05-15T02:23:36.394Z,101276.63
2023-05-15T02:27:05.342Z,101287.13
2023-05-15T02:30:39.651Z,101272.25
2023-05-15T02:34:09.661Z,101279.25
2023-05-15T02:37:36.303Z,101271.50
2023-05-15T02:40:59.413Z,101268.25
2023-05-15T02:44:21.504Z,101271.72
2023-05-15T02:47:44.088Z,101266.47
2023-05-15T02:51:06.570Z,101270.41
2023-05-15T02:54:29.712Z,101265.72
2023-05-15T02:57:51.611Z,101256.88
2023-05-15T03:01:13.713Z,101259.38
2023-05-15T03:04:35.307Z,101262.72
2023-05-15T03:07:58.508Z,101267.75
2023-05-15T03:11:21.635Z,101261.28
2023-05-15T03:14:43.547Z,101264.81
2023-05-15T03:18:05.601Z,101245.44
2023-05-15T03:21:27.398Z,101252.31
2023-05-15T03:24:49.238Z,101246.22
2023-05-15T03:28:12.808Z,101244.44
2023-05-15T03:31:35.068Z,101243.50
2023-05-15T03:34:56.668Z,101240.75
2023-05-15T03:38:18.059Z,101239.91
2023-05-15T03:41:40.073Z,101238.16
2023-05-15T03:45:03.394Z,101238.88
2023-05-15T03:48:25.534Z,101237.91
2023-05-15T03:51:47.183Z,101235.88
2023-05-15T03:55:09.627Z,101228.69
2023-05-15T03:58:32.215Z,101235.50
2023-05-15T04:02:04.362Z,101223.28
2023-05-15T04:05:27.721Z,101225.06
2023-05-15T04:08:50.493Z,101222.44
2023-05-15T04:12:12.503Z,101229.47
2023-05-15T04:15:34.163Z,101217.94
2023-05-15T04:18:57.503Z,101217.91
2023-05-15T04:22:19.382Z,101225.94
2023-05-15T04:25:42.897Z,101224.94
2023-05-15T04:29:05.224Z,101220.31
2023-05-15T04:32:27.746Z,101223.38
2023-05-15T04:35:50.974Z,101215.34
2023-05-15T04:39:13.246Z,101220.50
2023-05-15T04:42:35.184Z,101218.63
2023-05-15T04:45:57.066Z,101209.34
2023-05-15T04:49:18.951Z,101218.63
2023-05-15T04:52:43.180Z,101213.31
2023-05-15T04:56:05.765Z,101215.44
2023-05-15T04:59:28.743Z,101217.63
2023-05-15T05:02:51.104Z,101217.41
2023-05-15T05:06:12.971Z,101207.09
2023-05-15T05:09:36.218Z,101206.84
2023-05-15T05:12:58.329Z,101206.66
2023-05-15T05:16:20.394Z,101200.72
2023-05-15T05:19:42.912Z,101201.47
2023-05-15T05:23:04.880Z,101194.03
2023-05-15T05:26:28.521Z,101198.69
2023-05-15T05:29:50.541Z,101197.00
2023-05-15T05:33:12.792Z,101195.00
2023-05-15T05:36:34.541Z,101192.38
2023-05-15T05:39:56.490Z,101193.94
2023-05-15T05:43:20.946Z,101191.38
2023-05-15T05:46:42.694Z,101196.31
2023-05-15T05:50:04.713Z,101193.94
2023-05-15T05:53:26.362Z,101183.28
2023-05-15T05:56:50.096Z,101177.09
2023-05-15T06:00:15.066Z,101181.63
2023-05-15T06:03:37.765Z,101183.59
2023-05-15T06:06:59.533Z,101179.44
2023-05-15T06:10:21.988Z,101169.94
2023-05-15T06:13:44.243Z,101174.59
2023-05-15T06:17:07.548Z,101173.06
2023-05-15T06:20:29.344Z,101171.41
2023-05-15T06:23:51.045Z,101164.91
2023-05-15T06:27:15.432Z,101163.13
2023-05-15T06:30:37.114Z,101167.72
2023-05-15T06:34:00.177Z,101163.00
2023-05-15T06:37:22.283Z,101166.53
2023-05-15T06:40:43.979Z,101157.72
2023-05-15T06:44:06.124Z,101156.03
2023-05-15T06:47:28.054Z,101154.09
2023-05-15T06:50:51.628Z,101157.75
2023-05-15T06:54:13.316Z,101145.16
2023-05-15T06:57:35.138Z,101151.09
2023-05-15T07:00:57.291Z,101150.13
2023-05-15T07:04:21.170Z,101154.94
2023-05-15T07:07:44.504Z,101152.00
2023-05-15T07:11:06.654Z,101160.09
2023-05-15T07:14:28.413Z,101152.34
2023-05-15T07:17:50.187Z,101155.09
2023-05-15T07:21:11.768Z,101153.75
2023-05-15T07:24:34.849Z,101158.19
2023-05-15T07:27:56.978Z,101153.06
2023-05-15T07:31:19.090Z,101150.34
2023-05-15T07:34:41.977Z,101153.44
2023-05-15T07:38:03.898Z,101152.22
2023-05-15T07:41:27.217Z,101144.63
2023-05-15T07:44:49.683Z,101139.72
2023-05-15T07:48:15.552Z,101130.53
2023-05-15T07:51:37.463Z,101131.81
2023-05-15T07:54:59.315Z,101125.69
2023-05-15T07:58:23.392Z,101129.47
2023-05-15T08:01:45.022Z,101116.31
2023-05-15T08:05:07.730Z,101124.63
2023-05-15T08:08:29.702Z,101124.94
2023-05-15T08:11:51.729Z,101118.50
2023-05-15T08:15:15.553Z,101115.56
2023-05-15T08:18:37.598Z,101112.78
2023-05-15T08:21:59.429Z,101115.06
2023-05-15T08:25:21.103Z,101112.66
2023-05-15T08:28:43.042Z,101113.25
2023-05-15T08:32:07.972Z,101117.63
2023-05-15T08:35:29.815Z,101105.28
2023-05-15T08:38:51.503Z,101098.66
2023-05-15T08:42:19.813Z,101096.81
2023-05-15T08:45:42.064Z,101095.69
2023-05-15T08:49:15.768Z,101098.78
2023-05-15T08:52:37.709Z,101090.22
2023-05-15T08:55:59.612Z,101088.66
2023-05-15T08:59:21.683Z,101085.00
2023-05-15T09:02:44.011Z,101075.44
2023-05-15T09:06:08.232Z,101069.94
2023-05-15T09:09:31.410Z,101074.44
2023-05-15T09:12:54.823Z,101068.06
2023-05-15T09:16:16.772Z,101067.72
2023-05-15T09:19:40.613Z,101060.34
2023-05-15T09:23:05.512Z,101051.44
2023-05-15T09:26:27.253Z,101050.84
2023-05-15T09:29:52.274Z,101050.72
2023-05-15T09:33:18.297Z,101039.56
2023-05-15T09:37:19.365Z,101042.94
2023-05-15T09:40:53.802Z,101031.63
2023-05-15T09:44:38.903Z,101028.53
2023-05-15T09:48:15.173Z,101031.81
2023-05-15T09:51:37.709Z,101030.56
2023-05-15T09:54:59.829Z,101028.25
2023-05-15T09:58:23.883Z,101012.22
2023-05-15T10:01:48.932Z,101023.19
2023-05-15T10:05:14.670Z,101016.66
2023-05-15T10:08:38.231Z,101009.38
2023-05-15T10:12:01.360Z,101005.25
2023-05-15T10:15:25.258Z,100997.38
2023-05-15T10:18:49.673Z,100994.16
2023-05-15T10:22:12.686Z,100991.97
2023-05-15T10:25:41.330Z,101008.34
2023-05-15T10:29:06.339Z,100987.66
2023-05-15T10:32:30.926Z,100986.78
2023-05-15T10:35:54.805Z,100990.72
2023-05-15T10:39:18.221Z,100982.53
2023-05-15T10:42:43.528Z,100970.31
2023-05-15T10:46:06.604Z,100977.22
2023-05-15T10:49:29.653Z,100978.44
2023-05-15T10:52:53.141Z,100963.00
2023-05-15T10:56:16.828Z,100959.06
2023-05-15T10:59:38.499Z,100945.94
2023-05-15T11:03:01.315Z,100947.06
2023-05-15T11:06:32.427Z,100941.63
2023-05-15T11:09:54.896Z,100931.47
2023-05-15T11:13:16.586Z,100940.38
2023-05-15T11:16:59.679Z,100934.03
2023-05-15T11:20:21.717Z,100937.38
2023-05-15T11:23:48.658Z,100929.53
2023-05-15T11:27:17.905Z,100918.19
2023-05-15T11:30:41.423Z,100926.94
2023-05-15T11:34:07.486Z,100911.91
2023-05-15T11:37:31.391Z,100922.13
2023-05-15T11:40:57.271Z,100917.09
2023-05-15T11:44:22.872Z,100923.44
2023-05-15T11:47:45.623Z,100911.78
2023-05-15T11:51:16.230Z,100895.22
2023-05-15T11:54:38.405Z,100904.44
2023-05-15T11:58:01.816Z,100899.06
2023-05-15T12:01:23.789Z,100904.78
2023-05-15T12:04:45.577Z,100890.00
2023-05-15T12:08:11.606Z,100900.72
2023-05-15T12:11:33.668Z,100889.78
2023-05-15T12:14:59.483Z,100884.91
2023-05-15T12:18:21.371Z,100876.69
2023-05-15T12:21:55.298Z,100870.06
2023-05-15T12:25:17.939Z,100879.50
2023-05-15T12:28:40.010Z,100871.78
2023-05-15T12:32:04.195Z,100870.28
2023-05-15T12:35:25.973Z,100865.56
2023-05-15T12:38:47.887Z,100857.53
2023-05-15T12:42:10.738Z,100862.09
2023-05-15T12:45:33.515Z,100858.88
2023-05-15T12:48:59.619Z,100852.88
2023-05-15T12:52:23.580Z,100845.78
2023-05-15T12:55:47.652Z,100851.50
2023-05-15T12:59:09.209Z,100843.59
2023-05-15T13:02:33.519Z,100840.09
2023-05-15T13:05:56.979Z,100839.91
2023-05-15T13:09:23.461Z,100844.13
2023-05-15T13:12:46.799Z,100852.00
2023-05-15T13:16:19.583Z,100832.06
2023-05-15T13:19:41.491Z,100840.28
2023-05-15T13:23:05.354Z,100828.19
2023-05-15T13:26:27.633Z,100829.88
2023-05-15T13:29:51.890Z,100819.81
2023-05-15T13:33:14.878Z,100814.09
2023-05-15T13:36:36.890Z,100811.38
2023-05-15T13:40:00.093Z,100810.56
2023-05-15T13:43:23.183Z,100808.25
2023-05-15T13:46:46.390Z,100801.53
2023-05-15T13:50:10.087Z,100796.50
2023-05-15T13:53:31.864Z,100792.13
2023-05-15T13:56:55.079Z,100790.94
2023-05-15T14:00:18.781Z,100797.34
2023-05-15T14:03:40.829Z,100790.63
2023-05-15T14:07:02.384Z,100788.41
2023-05-15T14:10:24.578Z,100783.38
2023-05-15T14:13:48.195Z,100778.34
2023-05-15T14:17:10.118Z,100774.19
2023-05-15T14:20:31.970Z,100780.59
2023-05-15T14:23:53.920Z,100780.94
2023-05-15T14:27:18.377Z,100785.59
2023-05-15T14:30:41.611Z,100770.19
2023-05-15T14:34:03.344Z,100764.50
2023-05-15T14:37:25.128Z,100765.66
2023-05-15T14:40:47.271Z,100749.75
2023-05-15T14:44:08.843Z,100756.47
2023-05-15T14:47:36.414Z,100755.66
2023-05-15T14:51:00.164Z,100752.97
2023-05-15T14:54:23.825Z,100751.94
2023-05-15T14:57:50.761Z,100738.72
2023-05-15T15:01:13.539Z,100735.22
2023-05-15T15:04:41.692Z,100743.28
2023-05-15T15:08:08.037Z,100731.22
2023-05-15T15:11:33.036Z,100736.59
2023-05-15T15:14:59.060Z,100736.75
2023-05-15T15:18:22.496Z,100734.59
2023-05-15T15:21:48.275Z,100725.69
2023-05-15T15:25:11.848Z,100730.53
2023-05-15T15:28:35.425Z,100722.81
2023-05-15T15:32:05.401Z,100713.13
2023-05-15T15:35:31.163Z,100721.84
2023-05-15T15:38:56.165Z,100714.97
2023-05-15T15:42:19.335Z,100710.44
2023-05-15T15:45:42.472Z,100713.63
2023-05-15T15:49:09.654Z,100715.94
2023-05-15T15:52:34.361Z,100704.06
2023-05-15T15:55:58.441Z,100712.09
2023-05-15T15:59:22.848Z,100711.44
2023-05-15T16:02:47.968Z,100709.22
2023-05-15T16:06:15.101Z,100716.75
2023-05-15T16:09:38.064Z,100709.47
2023-05-15T16:13:01.946Z,100709.13
2023-05-15T16:16:25.263Z,100717.09
2023-05-15T16:19:48.256Z,100717.22
2023-05-15T16:23:11.876Z,100705.28
2023-05-15T16:26:34.335Z,100706.44
2023-05-15T16:29:57.645Z,100713.84
2023-05-15T16:33:20.003Z,100713.28
2023-05-15T16:36:42.332Z,100710.03
2023-05-15T16:40:04.956Z,100716.00
2023-05-15T16:43:26.706Z,100709.91
2023-05-15T16:46:49.932Z,100717.03
2023-05-15T16:50:13.309Z,100715.50
2023-05-15T16:53:35.260Z,100717.97
2023-05-15T16:56:59.309Z,100723.09
2023-05-15T17:00:21.806Z,100716.50
2023-05-15T17:03:45.322Z,100720.59
2023-05-15T17:07:07.673Z,100712.38
2023-05-15T17:10:32.351Z,100717.50
2023-05-15T17:13:54.127Z,100717.22
2023-05-15T17:17:15.885Z,100706.63
2023-05-15T17:20:39.197Z,100713.72
2023-05-15T17:24:01.253Z,100708.97
2023-05-15T17:27:25.016Z,100709.06
2023-05-15T17:30:51.755Z,100708.66
2023-05-15T17:34:15.428Z,100711.50
2023-05-15T17:37:41.580Z,100716.44
2023-05-15T17:41:04.936Z,100717.16
2023-05-15T17:44:29.817Z,100715.56
2023-05-15T17:47:52.502Z,100728.94
2023-05-15T17:51:14.470Z,100717.06
2023-05-15T17:54:37.851Z,100720.03
2023-05-15T17:58:00.191Z,100718.09
2023-05-15T18:01:22.302Z,100719.66
2023-05-15T18:04:44.379Z,100722.16
2023-05-15T18:08:06.978Z,100709.16
2023-05-15T18:11:30.196Z,100714.34
2023-05-15T18:14:52.401Z,100714.19
2023-05-15T18:18:14.696Z,100724.84
2023-05-15T18:21:38.003Z,100721.09
2023-05-15T18:25:01.007Z,100724.59
2023-05-15T18:28:24.064Z,100728.75
2023-05-15T18:31:46.160Z,100722.59
2023-05-15T18:35:08.571Z,100724.22
2023-05-15T18:38:30.411Z,100721.56
2023-05-15T18:41:52.663Z,100715.09
2023-05-15T18:45:16.363Z,100720.53
2023-05-15T18:48:37.990Z,100716.03
2023-05-15T18:52:00.198Z,100711.53
2023-05-15T18:55:22.859Z,100717.50
2023-05-15T18:58:45.764Z,100710.22
2023-05-15T19:02:10.372Z,100706.94
2023-05-15T19:05:33.792Z,100712.88
2023-05-15T19:08:55.762Z,100709.06
2023-05-15T19:12:17.762Z,100712.38
2023-05-15T19:15:39.562Z,100699.91
2023-05-15T19:19:02.814Z,100709.34
2023-05-15T19:22:24.787Z,100699.50
2023-05-15T19:25:46.863Z,100704.63
2023-05-15T19:29:08.637Z,100699.13
2023-05-15T19:32:30.534Z,100700.59
2023-05-15T19:35:53.734Z,100699.56
2023-05-15T19:39:15.847Z,100702.75
2023-05-15T19:42:37.694Z,100697.34
2023-05-15T19:45:59.414Z,100696.13
2023-05-15T19:49:21.394Z,100697.63
2023-05-15T19:52:45.360Z,100697.41
2023-05-15T19:56:07.838Z,100692.44
2023-05-15T19:59:30.096Z,100691.16
2023-05-15T20:02:51.990Z,100684.81
2023-05-15T20:06:13.890Z,100685.31
2023-05-15T20:09:39.317Z,100685.66
2023-05-15T20:13:01.336Z,100671.59
2023-05-15T20:16:23.070Z,100681.09
2023-05-15T20:19:45.063Z,100679.66
2023-05-15T20:23:07.474Z,100677.50
2023-05-15T20:26:30.645Z,100667.28
2023-05-15T20:29:52.484Z,100666.69
2023-05-15T20:33:14.692Z,100661.72
2023-05-15T20:36:38.969Z,100663.09
2023-05-15T20:40:01.059Z,100652.97
2023-05-15T20:48:11.793Z,100651.13
2023-05-15T20:51:33.638Z,100654.88
2023-05-15T20:54:55.545Z,100649.94
2023-05-15T20:58:17.287Z,100645.97
2023-05-15T21:01:39.320Z,100649.09
2023-05-15T21:05:02.369Z,100661.09
2023-05-15T21:08:24.401Z,100658.84
2023-05-15T21:11:47.318Z,100654.75
2023-05-15T21:15:11.292Z,100652.44
2023-05-15T21:18:34.214Z,100655.34
2023-05-15T21:21:57.428Z,100646.78
2023-05-15T21:25:20.109Z,100654.13
2023-05-15T21:28:41.804Z,100650.84
2023-05-15T21:32:03.550Z,100643.16
2023-05-15T21:35:25.706Z,100640.03
2023-05-15T21:38:48.851Z,100643.84
2023-05-15T21:42:10.900Z,100643.16
2023-05-15T21:45:33.151Z,100630.03
2023-05-15T21:48:54.695Z,100631.09
2023-05-15T21:52:16.380Z,100626.91
2023-05-15T21:55:39.984Z,100632.44
2023-05-15T21:59:01.893Z,100631.69
2023-05-15T22:02:23.783Z,100623.16
2023-05-15T22:05:46.750Z,100620.75
2023-05-15T22:09:08.805Z,100620.00
2023-05-15T22:12:32.315Z,100621.06
2023-05-15T22:15:54.288Z,100615.25
2023-05-15T22:19:25.053Z,100610.09
2023-05-15T22:22:53.664Z,100599.75
2023-05-15T22:26:15.765Z,100601.66
2023-05-15T22:29:38.880Z,100597.44
2023-05-15T22:33:00.831Z,100597.56
2023-05-15T22:36:22.597Z,100589.88
2023-05-15T22:39:44.120Z,100591.78
2023-05-15T22:43:05.920Z,100577.13
2023-05-15T22:46:29.257Z,100577.13
2023-05-15T22:49:51.509Z,100572.16
2023-05-15T22:53:16.790Z,100570.47
2023-05-15T22:56:38.541Z,100565.34
2023-05-15T23:00:00.183Z,100564.69
2023-05-15T23:03:23.394Z,100557.84
2023-05-15T23:06:45.240Z,100554.59
2023-05-15T23:10:08.403Z,100546.03
2023-05-15T23:13:30.588Z,100542.78
2023-05-15T23:16:52.280Z,100527.03
2023-05-15T23:20:15.848Z,100532.47
2023-05-15T23:23:37.477Z,100528.38
2023-05-15T23:26:59.405Z,100525.81
2023-05-15T23:30:21.583Z,100518.97
2023-05-15T23:33:43.532Z,100516.69
2023-05-15T23:37:07.068Z,100519.34
2023-05-15T23:40:28.937Z,100506.22
2023-05-15T23:43:51.038Z,100507.19
2023-05-15T23:47:12.839Z,100504.78
2023-05-15T23:50:34.712Z,100503.19
2023-05-15T23:53:57.945Z,100502.59
2023-05-15T23:57:19.968Z,100501.84
